sensor_id;sensor_type;location;lat;lon;timestamp;temperature;humidity
21092;DHT22;10704;42.678;23.288;2023-04-24T00:00:15;11.20;99.90
21092;DHT22;10704;42.678;23.288;2023-04-24T00:02:41;11.20;99.90
21092;DHT22;10704;42.678;23.288;2023-04-24T00:05:12;11.10;99.90
21092;DHT22;10704;42.678;23.288;2023-04-24T00:07:39;10.90;99.90
21092;DHT22;10704;42.678;23.288;2023-04-24T00:10:06;10.90;99.90
21092;DHT22;10704;42.678;23.288;2023-04-24T00:12:32;11.10;99.90
21092;DHT22;10704;42.678;23.288;2023-04-24T00:15:00;11.00;99.90
21092;DHT22;10704;42.678;23.288;2023-04-24T00:17:26;11.10;99.90
21092;DHT22;10704;42.678;23.288;2023-04-24T00:19:52;11.20;99.90
21092;DHT22;10704;42.678;23.288;2023-04-24T00:22:28;11.20;99.90
21092;DHT22;10704;42.678;23.288;2023-04-24T00:24:54;11.10;99.90
21092;DHT22;10704;42.678;23.288;2023-04-24T00:27:20;11.10;99.90
21092;DHT22;10704;42.678;23.288;2023-04-24T00:29:47;11.00;99.90
21092;DHT22;10704;42.678;23.288;2023-04-24T00:32:13;10.90;99.90
21092;DHT22;10704;42.678;23.288;2023-04-24T00:34:40;10.90;99.90
21092;DHT22;10704;42.678;23.288;2023-04-24T00:37:06;10.90;99.90
21092;DHT22;10704;42.678;23.288;2023-04-24T00:39:32;10.90;99.90
21092;DHT22;10704;42.678;23.288;2023-04-24T00:41:58;10.90;99.90
21092;DHT22;10704;42.678;23.288;2023-04-24T00:44:24;10.90;99.90
21092;DHT22;10704;42.678;23.288;2023-04-24T00:46:51;10.80;99.90
21092;DHT22;10704;42.678;23.288;2023-04-24T00:49:21;10.80;99.90
21092;DHT22;10704;42.678;23.288;2023-04-24T00:51:47;10.80;99.90
21092;DHT22;10704;42.678;23.288;2023-04-24T00:54:15;10.90;99.90
21092;DHT22;10704;42.678;23.288;2023-04-24T00:56:42;10.90;99.90
21092;DHT22;10704;42.678;23.288;2023-04-24T00:59:10;10.90;99.90
21092;DHT22;10704;42.678;23.288;2023-04-24T01:01:36;10.90;99.90
21092;DHT22;10704;42.678;23.288;2023-04-24T01:04:02;10.80;99.90
21092;DHT22;10704;42.678;23.288;2023-04-24T01:06:29;10.70;99.90
21092;DHT22;10704;42.678;23.288;2023-04-24T01:08:58;10.60;99.90
21092;DHT22;10704;42.678;23.288;2023-04-24T01:11:25;10.50;99.90
21092;DHT22;10704;42.678;23.288;2023-04-24T01:13:51;10.50;99.90
21092;DHT22;10704;42.678;23.288;2023-04-24T01:16:19;10.50;99.90
21092;DHT22;10704;42.678;23.288;2023-04-24T01:18:48;10.60;99.90
21092;DHT22;10704;42.678;23.288;2023-04-24T01:21:15;10.70;99.90
21092;DHT22;10704;42.678;23.288;2023-04-24T01:23:45;10.70;99.90
21092;DHT22;10704;42.678;23.288;2023-04-24T01:26:12;10.70;99.90
21092;DHT22;10704;42.678;23.288;2023-04-24T01:28:38;10.60;99.90
21092;DHT22;10704;42.678;23.288;2023-04-24T01:31:05;10.60;99.90
21092;DHT22;10704;42.678;23.288;2023-04-24T01:33:32;10.60;99.90
21092;DHT22;10704;42.678;23.288;2023-04-24T01:35:58;10.60;99.90
21092;DHT22;10704;42.678;23.288;2023-04-24T01:38:24;10.50;99.90
21092;DHT22;10704;42.678;23.288;2023-04-24T01:40:51;10.40;99.90
21092;DHT22;10704;42.678;23.288;2023-04-24T01:43:17;10.30;99.90
21092;DHT22;10704;42.678;23.288;2023-04-24T01:45:44;10.20;99.90
21092;DHT22;10704;42.678;23.288;2023-04-24T01:48:12;10.20;99.90
21092;DHT22;10704;42.678;23.288;2023-04-24T01:50:38;10.10;99.90
21092;DHT22;10704;42.678;23.288;2023-04-24T01:53:04;10.00;99.90
21092;DHT22;10704;42.678;23.288;2023-04-24T01:55:30;10.00;99.90
21092;DHT22;10704;42.678;23.288;2023-04-24T01:57:56;10.00;99.90
21092;DHT22;10704;42.678;23.288;2023-04-24T02:00:23;9.90;99.90
21092;DHT22;10704;42.678;23.288;2023-04-24T02:02:51;9.90;99.90
21092;DHT22;10704;42.678;23.288;2023-04-24T02:05:17;10.00;99.90
21092;DHT22;10704;42.678;23.288;2023-04-24T02:07:43;10.00;99.90
21092;DHT22;10704;42.678;23.288;2023-04-24T02:10:09;10.00;99.90
21092;DHT22;10704;42.678;23.288;2023-04-24T02:12:35;10.00;99.90
21092;DHT22;10704;42.678;23.288;2023-04-24T02:15:01;9.90;99.90
21092;DHT22;10704;42.678;23.288;2023-04-24T02:17:27;9.80;99.90
21092;DHT22;10704;42.678;23.288;2023-04-24T02:19:53;9.80;99.90
21092;DHT22;10704;42.678;23.288;2023-04-24T02:22:19;9.60;99.90
21092;DHT22;10704;42.678;23.288;2023-04-24T02:24:45;9.50;99.90
21092;DHT22;10704;42.678;23.288;2023-04-24T02:27:13;9.50;99.90
21092;DHT22;10704;42.678;23.288;2023-04-24T02:29:40;9.50;99.90
21092;DHT22;10704;42.678;23.288;2023-04-24T02:32:06;9.40;99.90
21092;DHT22;10704;42.678;23.288;2023-04-24T02:34:32;9.40;99.90
21092;DHT22;10704;42.678;23.288;2023-04-24T02:36:59;9.30;99.90
21092;DHT22;10704;42.678;23.288;2023-04-24T02:39:24;9.30;99.90
21092;DHT22;10704;42.678;23.288;2023-04-24T02:41:51;9.30;99.90
21092;DHT22;10704;42.678;23.288;2023-04-24T02:44:17;9.30;99.90
21092;DHT22;10704;42.678;23.288;2023-04-24T02:46:43;9.30;99.90
21092;DHT22;10704;42.678;23.288;2023-04-24T02:49:09;9.40;99.90
21092;DHT22;10704;42.678;23.288;2023-04-24T02:51:37;9.40;99.90
21092;DHT22;10704;42.678;23.288;2023-04-24T02:54:07;9.40;99.90
21092;DHT22;10704;42.678;23.288;2023-04-24T02:56:34;9.30;99.90
21092;DHT22;10704;42.678;23.288;2023-04-24T02:59:00;9.30;99.90
21092;DHT22;10704;42.678;23.288;2023-04-24T03:01:26;9.30;99.90
21092;DHT22;10704;42.678;23.288;2023-04-24T03:03:52;9.20;99.90
21092;DHT22;10704;42.678;23.288;2023-04-24T03:06:18;9.20;99.90
21092;DHT22;10704;42.678;23.288;2023-04-24T03:08:44;9.10;99.90
21092;DHT22;10704;42.678;23.288;2023-04-24T03:11:10;9.00;99.90
21092;DHT22;10704;42.678;23.288;2023-04-24T03:13:36;9.00;99.90
21092;DHT22;10704;42.678;23.288;2023-04-24T03:16:02;9.00;99.90
21092;DHT22;10704;42.678;23.288;2023-04-24T03:18:28;9.00;99.90
21092;DHT22;10704;42.678;23.288;2023-04-24T03:20:54;8.90;99.90
21092;DHT22;10704;42.678;23.288;2023-04-24T03:23:20;8.80;99.90
21092;DHT22;10704;42.678;23.288;2023-04-24T03:25:46;8.70;99.90
21092;DHT22;10704;42.678;23.288;2023-04-24T03:28:15;8.80;99.90
21092;DHT22;10704;42.678;23.288;2023-04-24T03:30:44;8.70;99.90
21092;DHT22;10704;42.678;23.288;2023-04-24T03:33:11;8.70;99.90
21092;DHT22;10704;42.678;23.288;2023-04-24T03:35:43;8.70;99.90
21092;DHT22;10704;42.678;23.288;2023-04-24T03:38:11;8.80;99.90
21092;DHT22;10704;42.678;23.288;2023-04-24T03:41:09;8.80;99.90
21092;DHT22;10704;42.678;23.288;2023-04-24T03:43:40;8.90;99.90
21092;DHT22;10704;42.678;23.288;2023-04-24T03:46:06;8.90;99.90
21092;DHT22;10704;42.678;23.288;2023-04-24T03:48:38;9.00;99.90
21092;DHT22;10704;42.678;23.288;2023-04-24T03:51:05;9.00;99.90
21092;DHT22;10704;42.678;23.288;2023-04-24T03:53:32;9.10;99.90
21092;DHT22;10704;42.678;23.288;2023-04-24T03:55:58;9.10;99.90
21092;DHT22;10704;42.678;23.288;2023-04-24T03:58:24;9.10;99.90
21092;DHT22;10704;42.678;23.288;2023-04-24T04:00:52;9.20;99.90
21092;DHT22;10704;42.678;23.288;2023-04-24T04:03:43;9.30;99.90
21092;DHT22;10704;42.678;23.288;2023-04-24T04:06:10;9.40;99.90
21092;DHT22;10704;42.678;23.288;2023-04-24T04:08:37;9.30;99.90
21092;DHT22;10704;42.678;23.288;2023-04-24T04:11:03;9.40;99.90
21092;DHT22;10704;42.678;23.288;2023-04-24T04:13:29;9.60;99.90
21092;DHT22;10704;42.678;23.288;2023-04-24T04:15:56;9.80;99.90
21092;DHT22;10704;42.678;23.288;2023-04-24T04:18:22;9.70;99.90
21092;DHT22;10704;42.678;23.288;2023-04-24T04:20:48;9.70;99.90
21092;DHT22;10704;42.678;23.288;2023-04-24T04:23:14;9.60;99.90
21092;DHT22;10704;42.678;23.288;2023-04-24T04:26:01;9.80;99.90
21092;DHT22;10704;42.678;23.288;2023-04-24T04:28:37;9.80;99.90
21092;DHT22;10704;42.678;23.288;2023-04-24T04:31:05;10.00;99.90
21092;DHT22;10704;42.678;23.288;2023-04-24T04:33:33;10.10;99.90
21092;DHT22;10704;42.678;23.288;2023-04-24T04:36:01;10.10;99.90
21092;DHT22;10704;42.678;23.288;2023-04-24T04:38:29;10.10;99.90
21092;DHT22;10704;42.678;23.288;2023-04-24T04:41:06;10.30;99.90
21092;DHT22;10704;42.678;23.288;2023-04-24T04:43:33;10.30;99.90
21092;DHT22;10704;42.678;23.288;2023-04-24T04:46:00;10.30;99.90
21092;DHT22;10704;42.678;23.288;2023-04-24T04:48:27;10.20;99.90
21092;DHT22;10704;42.678;23.288;2023-04-24T04:50:54;10.20;99.90
21092;DHT22;10704;42.678;23.288;2023-04-24T04:53:21;10.40;99.90
21092;DHT22;10704;42.678;23.288;2023-04-24T04:55:47;10.40;99.90
21092;DHT22;10704;42.678;23.288;2023-04-24T04:58:15;10.50;99.90
21092;DHT22;10704;42.678;23.288;2023-04-24T05:00:42;10.50;99.90
21092;DHT22;10704;42.678;23.288;2023-04-24T05:03:25;10.60;99.90
21092;DHT22;10704;42.678;23.288;2023-04-24T05:06:02;10.70;99.90
21092;DHT22;10704;42.678;23.288;2023-04-24T05:08:31;10.60;99.90
21092;DHT22;10704;42.678;23.288;2023-04-24T05:10:58;10.60;99.90
21092;DHT22;10704;42.678;23.288;2023-04-24T05:13:26;10.60;99.90
21092;DHT22;10704;42.678;23.288;2023-04-24T05:15:52;10.60;99.90
21092;DHT22;10704;42.678;23.288;2023-04-24T05:18:18;10.70;99.90
21092;DHT22;10704;42.678;23.288;2023-04-24T05:20:44;10.80;99.90
21092;DHT22;10704;42.678;23.288;2023-04-24T05:23:10;10.80;99.90
21092;DHT22;10704;42.678;23.288;2023-04-24T05:25:39;10.90;99.90
21092;DHT22;10704;42.678;23.288;2023-04-24T05:28:10;11.00;99.90
21092;DHT22;10704;42.678;23.288;2023-04-24T05:30:37;10.90;99.90
21092;DHT22;10704;42.678;23.288;2023-04-24T05:33:03;11.00;99.90
21092;DHT22;10704;42.678;23.288;2023-04-24T05:35:32;11.00;99.90
21092;DHT22;10704;42.678;23.288;2023-04-24T05:37:58;11.00;99.90
21092;DHT22;10704;42.678;23.288;2023-04-24T05:40:24;11.00;99.90
21092;DHT22;10704;42.678;23.288;2023-04-24T05:42:50;11.00;99.90
21092;DHT22;10704;42.678;23.288;2023-04-24T05:45:22;11.00;99.90
21092;DHT22;10704;42.678;23.288;2023-04-24T05:47:49;11.10;99.90
21092;DHT22;10704;42.678;23.288;2023-04-24T05:50:16;11.10;99.90
21092;DHT22;10704;42.678;23.288;2023-04-24T05:52:42;11.20;99.90
21092;DHT22;10704;42.678;23.288;2023-04-24T05:55:22;11.30;99.90
21092;DHT22;10704;42.678;23.288;2023-04-24T05:57:48;11.50;99.90
21092;DHT22;10704;42.678;23.288;2023-04-24T06:00:14;11.50;99.90
21092;DHT22;10704;42.678;23.288;2023-04-24T06:02:49;11.60;99.90
21092;DHT22;10704;42.678;23.288;2023-04-24T06:05:15;11.60;99.90
21092;DHT22;10704;42.678;23.288;2023-04-24T06:07:41;11.90;99.90
21092;DHT22;10704;42.678;23.288;2023-04-24T06:10:08;12.00;99.90
21092;DHT22;10704;42.678;23.288;2023-04-24T06:12:40;12.20;99.90
21092;DHT22;10704;42.678;23.288;2023-04-24T06:15:11;12.30;99.90
21092;DHT22;10704;42.678;23.288;2023-04-24T06:17:57;12.40;99.90
21092;DHT22;10704;42.678;23.288;2023-04-24T06:20:23;12.70;99.90
21092;DHT22;10704;42.678;23.288;2023-04-24T06:22:49;12.70;99.90
21092;DHT22;10704;42.678;23.288;2023-04-24T06:25:15;12.80;99.90
21092;DHT22;10704;42.678;23.288;2023-04-24T06:27:41;12.60;99.90
21092;DHT22;10704;42.678;23.288;2023-04-24T06:30:08;12.90;99.90
21092;DHT22;10704;42.678;23.288;2023-04-24T06:32:34;13.10;99.90
21092;DHT22;10704;42.678;23.288;2023-04-24T06:34:59;13.20;99.90
21092;DHT22;10704;42.678;23.288;2023-04-24T06:37:25;13.40;99.90
21092;DHT22;10704;42.678;23.288;2023-04-24T06:39:51;13.50;99.90
21092;DHT22;10704;42.678;23.288;2023-04-24T06:42:17;13.60;99.90
21092;DHT22;10704;42.678;23.288;2023-04-24T06:44:43;13.80;99.90
21092;DHT22;10704;42.678;23.288;2023-04-24T06:47:10;13.90;99.90
21092;DHT22;10704;42.678;23.288;2023-04-24T06:49:39;13.90;99.90
21092;DHT22;10704;42.678;23.288;2023-04-24T06:52:06;14.00;99.90
21092;DHT22;10704;42.678;23.288;2023-04-24T06:54:32;14.10;99.90
21092;DHT22;10704;42.678;23.288;2023-04-24T06:56:59;13.90;99.90
21092;DHT22;10704;42.678;23.288;2023-04-24T06:59:26;14.10;99.90
21092;DHT22;10704;42.678;23.288;2023-04-24T07:01:53;14.30;99.90
21092;DHT22;10704;42.678;23.288;2023-04-24T07:04:19;14.50;99.90
21092;DHT22;10704;42.678;23.288;2023-04-24T07:06:45;14.70;99.90
21092;DHT22;10704;42.678;23.288;2023-04-24T07:09:12;14.90;99.90
21092;DHT22;10704;42.678;23.288;2023-04-24T07:11:39;15.10;99.90
21092;DHT22;10704;42.678;23.288;2023-04-24T07:14:06;15.30;99.90
21092;DHT22;10704;42.678;23.288;2023-04-24T07:16:32;15.40;99.90
21092;DHT22;10704;42.678;23.288;2023-04-24T07:18:58;15.50;99.30
21092;DHT22;10704;42.678;23.288;2023-04-24T07:21:24;15.40;99.30
21092;DHT22;10704;42.678;23.288;2023-04-24T07:23:51;15.40;99.20
21092;DHT22;10704;42.678;23.288;2023-04-24T07:26:17;15.80;99.10
21092;DHT22;10704;42.678;23.288;2023-04-24T07:28:43;15.90;97.80
21092;DHT22;10704;42.678;23.288;2023-04-24T07:31:10;16.00;97.00
21092;DHT22;10704;42.678;23.288;2023-04-24T07:33:36;16.10;97.20
21092;DHT22;10704;42.678;23.288;2023-04-24T07:36:02;16.30;96.80
21092;DHT22;10704;42.678;23.288;2023-04-24T07:38:31;16.70;95.50
21092;DHT22;10704;42.678;23.288;2023-04-24T07:40:57;16.40;94.90
21092;DHT22;10704;42.678;23.288;2023-04-24T07:43:23;16.60;94.90
21092;DHT22;10704;42.678;23.288;2023-04-24T07:45:52;17.10;93.80
21092;DHT22;10704;42.678;23.288;2023-04-24T07:48:18;17.50;93.00
21092;DHT22;10704;42.678;23.288;2023-04-24T07:50:44;18.00;91.60
21092;DHT22;10704;42.678;23.288;2023-04-24T07:53:10;18.00;90.50
21092;DHT22;10704;42.678;23.288;2023-04-24T07:55:36;18.20;90.20
21092;DHT22;10704;42.678;23.288;2023-04-24T07:58:02;18.20;89.50
21092;DHT22;10704;42.678;23.288;2023-04-24T08:00:28;17.90;88.70
21092;DHT22;10704;42.678;23.288;2023-04-24T08:02:54;18.20;88.80
21092;DHT22;10704;42.678;23.288;2023-04-24T08:05:20;18.70;87.10
21092;DHT22;10704;42.678;23.288;2023-04-24T08:07:46;18.50;86.30
21092;DHT22;10704;42.678;23.288;2023-04-24T08:10:14;18.90;85.80
21092;DHT22;10704;42.678;23.288;2023-04-24T08:12:41;19.20;83.50
21092;DHT22;10704;42.678;23.288;2023-04-24T08:15:07;19.60;83.50
21092;DHT22;10704;42.678;23.288;2023-04-24T08:17:34;20.10;81.30
21092;DHT22;10704;42.678;23.288;2023-04-24T08:20:02;20.40;80.20
21092;DHT22;10704;42.678;23.288;2023-04-24T08:22:29;20.80;78.70
21092;DHT22;10704;42.678;23.288;2023-04-24T08:24:55;20.90;77.80
21092;DHT22;10704;42.678;23.288;2023-04-24T08:27:23;20.80;76.50
21092;DHT22;10704;42.678;23.288;2023-04-24T08:29:49;20.70;76.90
21092;DHT22;10704;42.678;23.288;2023-04-24T08:32:16;20.70;76.30
21092;DHT22;10704;42.678;23.288;2023-04-24T08:34:42;20.80;76.30
21092;DHT22;10704;42.678;23.288;2023-04-24T08:37:08;21.30;75.80
21092;DHT22;10704;42.678;23.288;2023-04-24T08:39:33;21.50;73.60
21092;DHT22;10704;42.678;23.288;2023-04-24T08:42:00;21.50;73.70
21092;DHT22;10704;42.678;23.288;2023-04-24T08:44:35;21.70;73.30
21092;DHT22;10704;42.678;23.288;2023-04-24T08:47:05;21.50;71.80
21092;DHT22;10704;42.678;23.288;2023-04-24T08:49:32;21.20;73.40
21092;DHT22;10704;42.678;23.288;2023-04-24T08:51:59;21.00;73.60
21092;DHT22;10704;42.678;23.288;2023-04-24T08:54:25;20.70;73.20
21092;DHT22;10704;42.678;23.288;2023-04-24T08:56:53;20.60;74.50
21092;DHT22;10704;42.678;23.288;2023-04-24T08:59:23;20.90;73.60
21092;DHT22;10704;42.678;23.288;2023-04-24T09:01:49;21.40;71.40
21092;DHT22;10704;42.678;23.288;2023-04-24T09:04:17;21.60;70.40
21092;DHT22;10704;42.678;23.288;2023-04-24T09:06:45;22.50;70.10
21092;DHT22;10704;42.678;23.288;2023-04-24T09:09:11;23.90;67.00
21092;DHT22;10704;42.678;23.288;2023-04-24T09:11:37;24.40;63.80
21092;DHT22;10704;42.678;23.288;2023-04-24T09:14:04;24.80;62.20
21092;DHT22;10704;42.678;23.288;2023-04-24T09:16:30;24.20;63.20
21092;DHT22;10704;42.678;23.288;2023-04-24T09:18:58;24.10;62.70
21092;DHT22;10704;42.678;23.288;2023-04-24T09:21:24;23.60;62.20
21092;DHT22;10704;42.678;23.288;2023-04-24T09:24:08;23.30;64.10
21092;DHT22;10704;42.678;23.288;2023-04-24T09:26:39;23.60;63.30
21092;DHT22;10704;42.678;23.288;2023-04-24T09:29:05;23.40;63.20
21092;DHT22;10704;42.678;23.288;2023-04-24T09:31:31;23.90;63.10
21092;DHT22;10704;42.678;23.288;2023-04-24T09:34:04;24.60;61.90
21092;DHT22;10704;42.678;23.288;2023-04-24T09:36:42;24.70;60.70
21092;DHT22;10704;42.678;23.288;2023-04-24T09:39:12;24.60;60.20
21092;DHT22;10704;42.678;23.288;2023-04-24T09:41:57;25.10;59.80
21092;DHT22;10704;42.678;23.288;2023-04-24T09:44:27;24.90;59.60
21092;DHT22;10704;42.678;23.288;2023-04-24T09:46:57;25.60;59.00
21092;DHT22;10704;42.678;23.288;2023-04-24T09:49:25;26.30;57.50
21092;DHT22;10704;42.678;23.288;2023-04-24T09:51:52;26.50;56.60
21092;DHT22;10704;42.678;23.288;2023-04-24T09:54:19;27.10;56.00
21092;DHT22;10704;42.678;23.288;2023-04-24T09:56:48;27.10;55.60
21092;DHT22;10704;42.678;23.288;2023-04-24T09:59:18;27.80;53.90
21092;DHT22;10704;42.678;23.288;2023-04-24T10:01:45;27.70;53.70
21092;DHT22;10704;42.678;23.288;2023-04-24T10:04:23;27.50;52.70
21092;DHT22;10704;42.678;23.288;2023-04-24T10:06:51;27.40;53.30
21092;DHT22;10704;42.678;23.288;2023-04-24T10:09:19;28.00;51.50
21092;DHT22;10704;42.678;23.288;2023-04-24T10:11:53;26.60;52.70
21092;DHT22;10704;42.678;23.288;2023-04-24T10:14:20;26.20;53.30
21092;DHT22;10704;42.678;23.288;2023-04-24T10:16:47;26.40;53.30
21092;DHT22;10704;42.678;23.288;2023-04-24T10:19:15;27.10;51.90
21092;DHT22;10704;42.678;23.288;2023-04-24T10:21:43;28.40;50.80
21092;DHT22;10704;42.678;23.288;2023-04-24T10:24:18;28.10;49.60
21092;DHT22;10704;42.678;23.288;2023-04-24T10:26:47;27.10;50.40
21092;DHT22;10704;42.678;23.288;2023-04-24T10:29:18;27.00;50.70
21092;DHT22;10704;42.678;23.288;2023-04-24T10:31:45;26.60;50.70
21092;DHT22;10704;42.678;23.288;2023-04-24T10:34:12;26.60;49.80
21092;DHT22;10704;42.678;23.288;2023-04-24T10:36:42;25.70;51.60
21092;DHT22;10704;42.678;23.288;2023-04-24T10:39:11;25.40;51.70
21092;DHT22;10704;42.678;23.288;2023-04-24T10:41:38;24.90;52.20
21092;DHT22;10704;42.678;23.288;2023-04-24T10:44:12;24.60;52.90
21092;DHT22;10704;42.678;23.288;2023-04-24T10:46:42;23.30;53.10
21092;DHT22;10704;42.678;23.288;2023-04-24T10:49:08;23.80;53.20
21092;DHT22;10704;42.678;23.288;2023-04-24T10:54:28;24.70;52.50
21092;DHT22;10704;42.678;23.288;2023-04-24T10:57:27;25.00;52.70
21092;DHT22;10704;42.678;23.288;2023-04-24T11:00:21;23.90;52.70
21092;DHT22;10704;42.678;23.288;2023-04-24T11:02:48;22.80;54.40
21092;DHT22;10704;42.678;23.288;2023-04-24T11:05:16;22.70;55.40
21092;DHT22;10704;42.678;23.288;2023-04-24T11:10:39;21.50;56.90
21092;DHT22;10704;42.678;23.288;2023-04-24T11:13:06;21.40;58.10
21092;DHT22;10704;42.678;23.288;2023-04-24T11:15:32;21.10;58.20
21092;DHT22;10704;42.678;23.288;2023-04-24T11:17:58;20.50;58.40
21092;DHT22;10704;42.678;23.288;2023-04-24T11:20:24;20.20;59.90
21092;DHT22;10704;42.678;23.288;2023-04-24T11:22:53;19.00;69.60
21092;DHT22;10704;42.678;23.288;2023-04-24T11:25:21;17.60;87.60
21092;DHT22;10704;42.678;23.288;2023-04-24T11:27:49;16.40;97.90
21092;DHT22;10704;42.678;23.288;2023-04-24T11:30:20;16.30;99.90
21092;DHT22;10704;42.678;23.288;2023-04-24T11:32:51;17.30;99.90
21092;DHT22;10704;42.678;23.288;2023-04-24T11:35:19;17.80;99.90
21092;DHT22;10704;42.678;23.288;2023-04-24T11:37:50;17.50;99.90
21092;DHT22;10704;42.678;23.288;2023-04-24T11:40:18;17.30;99.90
21092;DHT22;10704;42.678;23.288;2023-04-24T11:42:54;17.30;99.90
21092;DHT22;10704;42.678;23.288;2023-04-24T11:45:27;17.10;99.90
21092;DHT22;10704;42.678;23.288;2023-04-24T11:47:54;17.10;99.90
21092;DHT22;10704;42.678;23.288;2023-04-24T11:50:23;17.60;99.90
21092;DHT22;10704;42.678;23.288;2023-04-24T11:52:51;18.40;99.90
21092;DHT22;10704;42.678;23.288;2023-04-24T11:57:47;19.50;99.90
21092;DHT22;10704;42.678;23.288;2023-04-24T12:00:18;20.10;99.90
21092;DHT22;10704;42.678;23.288;2023-04-24T12:02:44;20.30;97.30
21092;DHT22;10704;42.678;23.288;2023-04-24T12:05:21;20.50;97.40
21092;DHT22;10704;42.678;23.288;2023-04-24T12:07:47;20.80;95.20
21092;DHT22;10704;42.678;23.288;2023-04-24T12:10:13;20.70;91.00
21092;DHT22;10704;42.678;23.288;2023-04-24T12:12:40;21.00;91.40
21092;DHT22;10704;42.678;23.288;2023-04-24T12:15:09;20.70;88.80
21092;DHT22;10704;42.678;23.288;2023-04-24T12:17:35;20.30;87.20
21092;DHT22;10704;42.678;23.288;2023-04-24T12:20:07;20.40;87.20
21092;DHT22;10704;42.678;23.288;2023-04-24T12:22:53;20.30;85.00
21092;DHT22;10704;42.678;23.288;2023-04-24T12:25:25;20.20;82.70
21092;DHT22;10704;42.678;23.288;2023-04-24T12:30:35;21.10;81.60
21092;DHT22;10704;42.678;23.288;2023-04-24T12:33:03;21.10;76.60
21092;DHT22;10704;42.678;23.288;2023-04-24T12:35:32;21.40;78.50
21092;DHT22;10704;42.678;23.288;2023-04-24T12:38:15;21.70;78.00
21092;DHT22;10704;42.678;23.288;2023-04-24T12:40:42;21.90;74.70
21092;DHT22;10704;42.678;23.288;2023-04-24T12:43:15;21.90;74.10
21092;DHT22;10704;42.678;23.288;2023-04-24T12:45:42;21.30;74.50
21092;DHT22;10704;42.678;23.288;2023-04-24T12:48:08;21.60;76.70
21092;DHT22;10704;42.678;23.288;2023-04-24T12:50:33;21.90;73.10
21092;DHT22;10704;42.678;23.288;2023-04-24T12:52:59;22.00;70.70
21092;DHT22;10704;42.678;23.288;2023-04-24T12:55:25;22.20;72.30
21092;DHT22;10704;42.678;23.288;2023-04-24T12:57:51;22.50;70.50
21092;DHT22;10704;42.678;23.288;2023-04-24T13:00:19;22.50;71.40
21092;DHT22;10704;42.678;23.288;2023-04-24T13:02:45;22.30;70.40
21092;DHT22;10704;42.678;23.288;2023-04-24T13:05:10;21.20;71.80
21092;DHT22;10704;42.678;23.288;2023-04-24T13:07:37;20.80;73.70
21092;DHT22;10704;42.678;23.288;2023-04-24T13:10:03;21.00;75.70
21092;DHT22;10704;42.678;23.288;2023-04-24T13:12:29;21.30;73.40
21092;DHT22;10704;42.678;23.288;2023-04-24T13:14:55;21.90;70.40
21092;DHT22;10704;42.678;23.288;2023-04-24T13:17:21;21.90;70.10
21092;DHT22;10704;42.678;23.288;2023-04-24T13:19:50;21.90;69.50
21092;DHT22;10704;42.678;23.288;2023-04-24T13:22:17;22.10;68.40
21092;DHT22;10704;42.678;23.288;2023-04-24T13:24:44;22.80;66.30
21092;DHT22;10704;42.678;23.288;2023-04-24T13:27:10;22.40;66.30
21092;DHT22;10704;42.678;23.288;2023-04-24T13:29:37;22.40;66.00
21092;DHT22;10704;42.678;23.288;2023-04-24T13:32:03;23.10;64.70
21092;DHT22;10704;42.678;23.288;2023-04-24T13:34:29;23.10;64.40
21092;DHT22;10704;42.678;23.288;2023-04-24T13:36:56;23.20;63.60
21092;DHT22;10704;42.678;23.288;2023-04-24T13:39:24;23.00;63.90
21092;DHT22;10704;42.678;23.288;2023-04-24T13:41:50;23.50;62.70
21092;DHT22;10704;42.678;23.288;2023-04-24T13:44:18;23.20;64.30
21092;DHT22;10704;42.678;23.288;2023-04-24T13:46:45;23.50;61.10
21092;DHT22;10704;42.678;23.288;2023-04-24T13:49:13;23.50;61.70
21092;DHT22;10704;42.678;23.288;2023-04-24T13:51:40;24.00;61.30
21092;DHT22;10704;42.678;23.288;2023-04-24T13:54:06;24.10;60.00
21092;DHT22;10704;42.678;23.288;2023-04-24T13:56:32;23.50;61.00
21092;DHT22;10704;42.678;23.288;2023-04-24T13:58:58;23.70;60.20
21092;DHT22;10704;42.678;23.288;2023-04-24T14:01:24;24.00;58.70
21092;DHT22;10704;42.678;23.288;2023-04-24T14:03:51;24.20;58.10
21092;DHT22;10704;42.678;23.288;2023-04-24T14:06:18;25.20;57.70
21092;DHT22;10704;42.678;23.288;2023-04-24T14:08:45;26.10;56.10
21092;DHT22;10704;42.678;23.288;2023-04-24T14:11:10;26.30;54.00
21092;DHT22;10704;42.678;23.288;2023-04-24T14:13:37;24.70;56.30
21092;DHT22;10704;42.678;23.288;2023-04-24T14:16:04;25.10;56.00
21092;DHT22;10704;42.678;23.288;2023-04-24T14:18:30;23.90;56.90
21092;DHT22;10704;42.678;23.288;2023-04-24T14:20:56;24.40;57.70
21092;DHT22;10704;42.678;23.288;2023-04-24T14:23:22;25.50;56.00
21092;DHT22;10704;42.678;23.288;2023-04-24T14:25:48;26.10;54.20
21092;DHT22;10704;42.678;23.288;2023-04-24T14:28:17;26.20;53.90
21092;DHT22;10704;42.678;23.288;2023-04-24T14:30:43;26.80;53.20
21092;DHT22;10704;42.678;23.288;2023-04-24T14:33:09;26.20;53.00
21092;DHT22;10704;42.678;23.288;2023-04-24T14:35:36;25.50;53.60
21092;DHT22;10704;42.678;23.288;2023-04-24T14:38:02;25.50;54.20
21092;DHT22;10704;42.678;23.288;2023-04-24T14:40:28;25.30;54.40
21092;DHT22;10704;42.678;23.288;2023-04-24T14:42:54;24.40;58.30
21092;DHT22;10704;42.678;23.288;2023-04-24T14:45:20;23.00;65.60
21092;DHT22;10704;42.678;23.288;2023-04-24T14:47:45;22.60;69.20
21092;DHT22;10704;42.678;23.288;2023-04-24T14:50:11;22.00;71.50
21092;DHT22;10704;42.678;23.288;2023-04-24T14:52:38;20.90;74.70
21092;DHT22;10704;42.678;23.288;2023-04-24T14:55:05;20.70;75.80
21092;DHT22;10704;42.678;23.288;2023-04-24T14:57:33;20.90;76.10
21092;DHT22;10704;42.678;23.288;2023-04-24T14:59:59;20.50;75.70
21092;DHT22;10704;42.678;23.288;2023-04-24T15:02:25;20.10;75.80
21092;DHT22;10704;42.678;23.288;2023-04-24T15:04:50;19.70;75.90
21092;DHT22;10704;42.678;23.288;2023-04-24T15:07:16;19.30;77.20
21092;DHT22;10704;42.678;23.288;2023-04-24T15:09:42;19.20;78.40
21092;DHT22;10704;42.678;23.288;2023-04-24T15:12:08;19.10;79.60
21092;DHT22;10704;42.678;23.288;2023-04-24T15:14:35;18.80;81.40
21092;DHT22;10704;42.678;23.288;2023-04-24T15:17:01;18.60;83.10
21092;DHT22;10704;42.678;23.288;2023-04-24T15:19:27;18.30;85.50
21092;DHT22;10704;42.678;23.288;2023-04-24T15:21:56;18.20;87.00
21092;DHT22;10704;42.678;23.288;2023-04-24T15:24:27;18.10;89.20
21092;DHT22;10704;42.678;23.288;2023-04-24T15:26:53;18.00;90.30
21092;DHT22;10704;42.678;23.288;2023-04-24T15:29:19;17.90;91.10
21092;DHT22;10704;42.678;23.288;2023-04-24T15:31:45;17.90;91.50